Terminal Aerodrome Forecast
Issued by NWS Binghamton, NY

Home | Current Version | Previous Version | Text Only | Print | Product List | Glossary On
Versions: 1 2 3 4 5 6 7 8 9 10 11 12 13 14 15 16 17 18 19
000
FTUS41 KBGM 010845 AAA
TAFBGM
TAF AMD
KBGM 010845Z 0109/0206 23005KT P6SM BKN100
      TEMPO 0109/0111 -SHRA BKN050
     FM011300 29010G16KT P6SM BKN050
     FM020000 29005KT P6SM FEW250=

USA.gov is the U.S. government's official web portal to all federal, state and local government web resources and services.